Time;durP1;ratioP1;P1;durP2;ratioP2;P2;SDS_P1;SDS_P2;PMS_P1;PMS_P2;Temp;Humidity;BMP_temperature;BMP_pressure;BME280_temperature;BME280_humidity;BME280_pressure;Samples;Min_cycle;Max_cycle;Signal;HPM_P1;HPM_P2
2021/06/21 00:01:55;;;;;;;10.88;2.30;;;;;;;16.94;91.21;96002.03;5044313;28;20037;-64
2021/06/21 00:04:21;;;;;;;11.38;3.40;;;;;;;17.08;91.48;96000.16;5037431;28;20853;-64
2021/06/21 00:06:46;;;;;;;11.00;2.17;;;;;;;17.25;90.41;96010.09;5035916;28;20060;-62
2021/06/21 00:09:11;;;;;;;12.88;2.45;;;;;;;17.03;90.37;96000.66;5034471;28;20048;-63
2021/06/21 00:11:37;;;;;;;14.32;2.28;;;;;;;16.82;91.64;95995.09;5022942;28;20605;-63
2021/06/21 00:14:03;;;;;;;13.50;2.75;;;;;;;16.38;94.78;95991.56;5037963;28;20132;-63
2021/06/21 00:16:29;;;;;;;17.13;2.50;;;;;;;16.04;96.72;96002.81;5019586;28;20044;-62
2021/06/21 00:18:54;;;;;;;14.27;3.08;;;;;;;15.93;98.84;95997.47;5039642;28;20079;-63
2021/06/21 00:21:20;;;;;;;16.33;3.65;;;;;;;15.89;98.72;96004.25;5032547;28;20040;-63
2021/06/21 00:23:45;;;;;;;8.57;2.80;;;;;;;16.09;99.59;96009.84;5041133;28;20060;-63
2021/06/21 00:26:11;;;;;;;16.73;3.00;;;;;;;16.26;98.88;96008.78;5031098;28;20033;-63
2021/06/21 00:28:36;;;;;;;11.18;3.10;;;;;;;16.68;96.73;96013.97;5040539;28;20051;-62
2021/06/21 00:31:02;;;;;;;11.68;2.95;;;;;;;16.76;95.68;96012.59;5039148;28;20033;-61
2021/06/21 00:33:27;;;;;;;11.25;2.63;;;;;;;16.74;95.11;96013.03;5038231;28;20161;-61
2021/06/21 00:35:53;;;;;;;14.93;2.47;;;;;;;16.78;94.64;96007.44;5040125;28;20044;-62
2021/06/21 00:38:18;;;;;;;12.65;2.45;;;;;;;16.95;94.14;96016.63;5035785;28;20041;-63
2021/06/21 00:40:44;;;;;;;7.82;2.28;;;;;;;16.98;93.66;96015.78;5036634;28;20041;-62
2021/06/21 00:43:10;;;;;;;15.40;2.60;;;;;;;17.10;92.87;96015.13;5033482;28;20054;-62
2021/06/21 00:45:36;;;;;;;13.60;2.28;;;;;;;17.16;92.71;96026.47;5021641;28;20052;-63
2021/06/21 00:48:01;;;;;;;12.77;2.38;;;;;;;17.18;92.49;96019.31;5035771;28;20037;-63
2021/06/21 00:50:28;;;;;;;12.65;2.72;;;;;;;17.15;92.34;96011.09;5018264;28;20050;-63
2021/06/21 00:52:56;;;;;;;12.35;2.55;;;;;;;16.66;93.92;96002.56;5043193;28;20041;-63
2021/06/21 00:55:22;;;;;;;8.45;3.10;;;;;;;16.26;96.40;96000.50;5038057;28;22657;-63
2021/06/21 00:57:47;;;;;;;15.25;3.22;;;;;;;16.16;97.34;96001.44;5040475;28;20037;-63
2021/06/21 01:00:15;;;;;;;12.57;3.33;;;;;;;16.25;97.33;95998.91;5034384;28;20390;-63
2021/06/21 01:02:42;;;;;;;15.85;4.05;;;;;;;16.28;96.34;96002.81;5039327;28;20048;-63
2021/06/21 01:05:10;;;;;;;16.60;3.20;;;;;;;16.31;96.78;96022.09;5034465;28;20389;-63
2021/06/21 01:07:37;;;;;;;15.18;2.75;;;;;;;16.50;95.44;96034.41;5037906;28;20044;-61
2021/06/21 01:10:04;;;;;;;15.02;2.10;;;;;;;16.51;94.69;96040.72;5038658;28;20033;-62
2021/06/21 01:12:48;;;;;;;11.65;2.50;;;;;;;16.44;95.21;96036.88;5020478;28;20045;-64
2021/06/21 01:15:16;;;;;;;8.18;2.65;;;;;;;16.40;95.34;96038.94;5032951;28;20560;-62
2021/06/21 01:18:12;;;;;;;13.80;2.20;;;;;;;16.26;96.09;96036.41;5038809;28;20155;-61
2021/06/21 01:20:49;;;;;;;15.98;2.40;;;;;;;16.40;96.58;96027.88;5038673;28;20421;-62
2021/06/21 01:23:39;;;;;;;12.88;3.58;;;;;;;16.47;95.97;96032.47;5034013;28;20053;-62
2021/06/21 01:26:04;;;;;;;;;;;;;;;16.52;95.23;96032.00;5034468;28;20398;-63
2021/06/21 01:29:00;;;;;;;9.85;2.17;;;;;;;16.47;93.96;96040.00;5037236;28;19917;-67
2021/06/21 01:31:39;;;;;;;11.13;2.40;;;;;;;16.24;94.24;96045.13;5033585;28;20641;-66
2021/06/21 01:34:04;;;;;;;7.72;2.45;;;;;;;16.10;95.03;96039.81;5029362;28;20060;-66
2021/06/21 01:36:30;;;;;;;7.80;2.22;;;;;;;16.04;95.26;96038.72;5035193;28;20045;-67
2021/06/21 01:39:00;;;;;;;10.48;2.15;;;;;;;15.97;95.55;96031.34;5042572;28;20051;-67
2021/06/21 01:41:30;;;;;;;8.75;1.75;;;;;;;15.99;95.63;96037.22;5038521;28;20044;-68
2021/06/21 01:43:58;;;;;;;16.05;2.47;;;;;;;16.04;95.98;96035.94;5046648;28;20128;-66
2021/06/21 01:46:34;;;;;;;8.35;2.10;;;;;;;16.09;96.78;96037.47;5020105;28;20316;-67
2021/06/21 01:49:12;;;;;;;11.20;2.17;;;;;;;16.00;95.88;96049.81;5052392;28;20048;-65
2021/06/21 01:51:40;;;;;;;19.98;2.88;;;;;;;16.05;96.49;96054.88;5040430;28;20501;-66
2021/06/21 01:54:07;;;;;;;11.38;2.10;;;;;;;16.09;96.28;96057.59;5019183;28;20049;-65
2021/06/21 01:56:37;;;;;;;10.48;2.38;;;;;;;16.12;96.08;96053.22;5042874;28;20037;-66
2021/06/21 01:59:06;;;;;;;11.88;2.42;;;;;;;16.24;95.38;96047.06;5039915;28;20075;-65
2021/06/21 02:01:33;;;;;;;10.55;2.75;;;;;;;16.19;94.75;96042.06;5041252;28;20067;-66
2021/06/21 02:04:00;;;;;;;9.93;2.10;;;;;;;16.12;95.11;96050.44;5043021;28;20099;-65
2021/06/21 02:06:29;;;;;;;9.23;2.50;;;;;;;15.75;96.73;96060.47;5034212;28;20094;-66
2021/06/21 02:08:56;;;;;;;19.63;2.70;;;;;;;15.48;98.44;96073.03;5038404;28;20037;-66
2021/06/21 02:11:24;;;;;;;13.38;2.75;;;;;;;15.14;100.00;96066.72;5041236;28;20036;-66
2021/06/21 02:13:51;;;;;;;13.45;2.70;;;;;;;15.09;100.00;96054.19;5051156;28;20094;-64
2021/06/21 02:16:17;;;;;;;18.83;3.50;;;;;;;15.21;100.00;96059.16;5031416;28;20040;-65
2021/06/21 02:18:44;;;;;;;12.95;2.85;;;;;;;15.54;100.00;96053.22;5040363;28;20041;-65
2021/06/21 02:21:12;;;;;;;13.35;3.33;;;;;;;15.78;99.47;96054.88;5033925;28;20041;-65
2021/06/21 02:23:38;;;;;;;8.50;2.60;;;;;;;15.76;98.34;96060.06;5038469;28;20045;-65
2021/06/21 02:26:04;;;;;;;17.40;3.08;;;;;;;15.91;98.10;96065.38;5035877;28;20106;-65
2021/06/21 02:28:31;;;;;;;9.70;2.63;;;;;;;15.57;96.27;96057.91;5040137;28;20064;-65
2021/06/21 02:30:58;;;;;;;12.82;2.55;;;;;;;15.48;97.80;96063.94;5041037;28;20045;-65
2021/06/21 02:33:25;;;;;;;10.80;2.75;;;;;;;15.47;97.70;96076.19;5032818;28;20128;-66
2021/06/21 02:35:51;;;;;;;15.45;2.60;;;;;;;15.55;97.82;96079.63;5041864;28;20045;-65
2021/06/21 02:38:17;;;;;;;15.88;3.58;;;;;;;15.52;97.69;96080.44;5040742;28;20393;-65
2021/06/21 02:40:42;;;;;;;16.20;2.55;;;;;;;15.72;97.29;96078.63;5038220;28;20033;-65
2021/06/21 02:43:08;;;;;;;13.40;2.50;;;;;;;15.81;95.83;96070.63;5037672;28;20037;-66
2021/06/21 02:45:34;;;;;;;7.70;2.30;;;;;;;15.81;95.66;96083.63;5020703;28;20049;-66
2021/06/21 02:48:02;;;;;;;18.42;2.63;;;;;;;15.74;94.32;96070.72;5038496;28;20175;-66
2021/06/21 02:50:27;;;;;;;11.82;2.30;;;;;;;15.70;94.81;96080.22;5020955;28;20041;-66
2021/06/21 02:53:08;;;;;;;14.23;2.60;;;;;;;15.68;94.40;96078.66;5041653;28;20423;-66
2021/06/21 02:55:50;;;;;;;14.55;2.30;;;;;;;15.48;94.20;96091.53;5030220;28;20079;-66
2021/06/21 02:58:27;;;;;;;15.85;2.10;;;;;;;15.37;94.79;96088.13;5027025;28;20056;-65
2021/06/21 03:00:54;;;;;;;8.02;2.35;;;;;;;15.28;95.98;96085.88;5040769;28;20037;-65
2021/06/21 03:03:26;;;;;;;16.48;2.55;;;;;;;14.79;99.83;96083.25;5016228;28;20087;-65
2021/06/21 03:05:53;;;;;;;15.90;2.80;;;;;;;14.60;100.00;96072.81;5040864;28;20482;-65
2021/06/21 03:08:19;;;;;;;11.25;3.42;;;;;;;14.37;100.00;96085.19;5033339;28;20037;-65
2021/06/21 03:10:46;;;;;;;14.85;3.65;;;;;;;14.28;100.00;96087.63;5031169;28;20394;-65
2021/06/21 03:13:12;;;;;;;14.20;2.85;;;;;;;14.17;100.00;96081.41;5032912;28;20041;-66
2021/06/21 03:15:39;;;;;;;15.65;3.28;;;;;;;14.17;100.00;96078.66;5040384;28;20049;-66
2021/06/21 03:18:06;;;;;;;11.77;2.90;;;;;;;14.39;100.00;96079.28;5037269;28;20055;-62
2021/06/21 03:20:33;;;;;;;11.02;3.17;;;;;;;14.54;100.00;96083.47;5031566;28;20041;-66
2021/06/21 03:23:01;;;;;;;9.50;2.00;;;;;;;14.66;100.00;96082.22;5031266;28;20118;-66
2021/06/21 03:25:32;;;;;;;10.57;2.55;;;;;;;14.81;100.00;96080.88;5032149;28;20103;-66
2021/06/21 03:28:06;;;;;;;11.60;4.50;;;;;;;14.91;100.00;96080.00;5041258;28;20044;-66
2021/06/21 03:30:31;;;;;;;15.82;3.30;;;;;;;14.89;100.00;96082.38;5038971;28;20052;-65
2021/06/21 03:32:57;;;;;;;12.35;2.65;;;;;;;14.80;100.00;96084.03;5040491;28;20033;-66
2021/06/21 03:35:23;;;;;;;10.82;2.80;;;;;;;14.71;99.89;96087.25;5009397;28;20991;-65
2021/06/21 03:37:49;;;;;;;9.82;2.80;;;;;;;14.57;100.00;96079.09;5023307;28;20064;-65
2021/06/21 03:40:15;;;;;;;8.65;2.63;;;;;;;14.30;100.00;96088.00;5033002;28;20049;-65
2021/06/21 03:42:41;;;;;;;15.20;4.10;;;;;;;14.16;100.00;96091.66;5039805;28;20044;-65
2021/06/21 03:45:09;;;;;;;13.52;3.00;;;;;;;14.13;100.00;96101.53;5033732;28;20037;-65
2021/06/21 03:47:36;;;;;;;11.02;3.28;;;;;;;14.05;100.00;96096.47;5021716;28;20069;-66
2021/06/21 03:50:03;;;;;;;10.88;2.95;;;;;;;14.04;100.00;96095.66;5039035;28;20078;-66
2021/06/21 03:52:29;;;;;;;10.45;2.63;;;;;;;14.16;100.00;96102.66;5038105;28;20041;-65
2021/06/21 03:55:06;;;;;;;9.93;2.67;;;;;;;14.29;100.00;96103.75;5040419;28;20391;-65
2021/06/21 03:57:36;;;;;;;15.55;3.58;;;;;;;14.37;100.00;96101.72;5032609;28;20044;-64
2021/06/21 04:00:06;;;;;;;9.55;2.63;;;;;;;14.45;100.00;96094.94;5016718;28;20607;-62
2021/06/21 04:02:31;;;;;;;11.70;2.90;;;;;;;14.31;100.00;96081.28;5034039;28;20040;-66
2021/06/21 04:04:56;;;;;;;12.23;2.45;;;;;;;14.37;100.00;96087.16;5040509;28;20265;-66
2021/06/21 04:07:22;;;;;;;10.18;3.22;;;;;;;14.50;100.00;96089.00;5028108;28;20049;-66
2021/06/21 04:09:47;;;;;;;12.27;2.67;;;;;;;14.29;100.00;96083.69;5041524;28;20546;-65
2021/06/21 04:12:13;;;;;;;12.45;2.28;;;;;;;14.34;100.00;96086.00;5036030;28;20048;-65
2021/06/21 04:14:38;;;;;;;14.88;2.90;;;;;;;14.41;100.00;96083.19;5038664;28;20088;-65
2021/06/21 04:17:03;;;;;;;13.02;2.25;;;;;;;14.52;100.00;96070.09;5038022;28;20132;-65
2021/06/21 04:19:29;;;;;;;9.60;3.17;;;;;;;14.94;100.00;96074.84;5048811;23;20058;-63
2021/06/21 04:21:55;;;;;;;9.82;2.35;;;;;;;15.38;100.00;96068.41;5014298;28;20136;-62
2021/06/21 04:24:20;;;;;;;9.43;2.42;;;;;;;15.57;98.02;96066.97;5011625;28;20064;-64
2021/06/21 04:26:45;;;;;;;10.23;2.72;;;;;;;15.68;97.22;96064.88;5029827;28;20045;-62
2021/06/21 04:29:11;;;;;;;15.70;2.90;;;;;;;15.63;97.17;96073.59;5024156;28;20576;-62
2021/06/21 04:31:36;;;;;;;14.77;2.35;;;;;;;15.78;96.10;96073.44;5020716;28;20402;-64
2021/06/21 04:34:02;;;;;;;9.98;2.03;;;;;;;15.65;96.46;96075.97;5018704;28;20037;-64
2021/06/21 04:36:28;;;;;;;14.77;2.70;;;;;;;15.57;98.11;96080.78;5014737;28;20118;-62
2021/06/21 04:38:53;;;;;;;12.30;2.58;;;;;;;15.60;98.03;96077.19;5020333;28;20390;-62
2021/06/21 04:41:18;;;;;;;9.48;2.60;;;;;;;15.66;97.64;96064.50;5014229;28;20510;-64
2021/06/21 04:43:44;;;;;;;21.52;2.47;;;;;;;15.80;96.89;96071.81;5020402;28;20056;-64
2021/06/21 04:46:09;;;;;;;15.10;2.83;;;;;;;16.00;96.33;96073.91;5015010;28;20045;-63
2021/06/21 04:48:35;;;;;;;9.50;2.00;;;;;;;16.35;96.14;96064.28;5017918;28;20087;-62
2021/06/21 04:51:00;;;;;;;13.05;1.65;;;;;;;16.68;92.23;96067.25;5020705;28;20061;-64
2021/06/21 04:53:26;;;;;;;12.63;1.65;;;;;;;17.01;91.20;96070.25;5013138;28;20088;-63
2021/06/21 04:55:52;;;;;;;14.02;2.47;;;;;;;17.06;89.38;96068.97;5011499;28;20053;-63
2021/06/21 04:58:17;;;;;;;12.40;2.17;;;;;;;17.11;89.89;96063.72;5014025;28;20044;-63
2021/06/21 05:00:42;;;;;;;8.50;1.65;;;;;;;17.53;89.25;96066.81;5018887;28;20067;-64
2021/06/21 05:03:09;;;;;;;9.00;2.03;;;;;;;18.39;86.63;96063.34;5014215;28;20033;-66
2021/06/21 05:05:37;;;;;;;11.75;2.08;;;;;;;20.54;77.41;96062.75;5017211;28;20095;-62
2021/06/21 05:08:02;;;;;;;9.77;1.83;;;;;;;22.78;65.34;96049.69;5007884;28;20075;-64
2021/06/21 05:10:28;;;;;;;15.07;2.53;;;;;;;24.63;57.43;96063.31;5020681;28;20037;-64
2021/06/21 05:12:54;;;;;;;8.02;1.80;;;;;;;25.34;53.99;96072.94;5024706;28;20486;-62
2021/06/21 05:15:20;;;;;;;12.27;2.17;;;;;;;26.92;50.22;96072.69;5018148;28;20045;-62
2021/06/21 05:17:46;;;;;;;7.45;1.63;;;;;;;26.84;48.56;96077.16;5023237;28;20489;-63
2021/06/21 05:20:11;;;;;;;11.20;1.52;;;;;;;26.85;49.24;96078.72;5019965;28;20041;-63
2021/06/21 05:22:37;;;;;;;12.48;1.88;;;;;;;24.59;55.36;96083.06;5026940;28;20052;-64
2021/06/21 05:25:03;;;;;;;8.32;1.60;;;;;;;23.90;57.28;96071.53;5022225;28;20045;-65
2021/06/21 05:27:30;;;;;;;12.68;1.67;;;;;;;23.57;59.59;96055.44;5014405;28;20041;-63
2021/06/21 05:29:56;;;;;;;14.40;2.67;;;;;;;25.60;53.82;96061.16;5023352;28;20038;-63
2021/06/21 05:32:23;;;;;;;10.18;1.40;;;;;;;27.35;48.09;96047.66;5018666;28;20849;-64
2021/06/21 05:34:48;;;;;;;10.35;1.90;;;;;;;28.68;44.84;96038.50;5027272;28;20049;-63
2021/06/21 05:37:13;;;;;;;13.05;1.52;;;;;;;29.95;41.40;96046.34;5021841;28;20041;-62
2021/06/21 05:39:39;;;;;;;7.25;1.48;;;;;;;30.32;40.56;96050.94;5021986;28;20038;-64
2021/06/21 05:42:05;;;;;;;9.88;1.50;;;;;;;30.60;39.40;96053.75;5019396;28;20044;-64
2021/06/21 05:44:30;;;;;;;13.30;1.40;;;;;;;30.31;38.80;96044.53;5022415;28;20042;-62
2021/06/21 05:46:55;;;;;;;11.52;1.27;;;;;;;31.20;37.97;96049.72;5023975;28;20065;-63
2021/06/21 05:49:21;;;;;;;8.52;1.35;;;;;;;31.10;37.33;96046.44;5016780;28;20037;-62
2021/06/21 05:51:46;;;;;;;13.07;2.13;;;;;;;31.58;36.91;96056.47;5020129;28;20106;-63
2021/06/21 05:54:12;;;;;;;10.73;1.42;;;;;;;31.99;35.32;96055.69;5009174;28;20038;-64
2021/06/21 05:56:37;;;;;;;17.48;1.70;;;;;;;30.72;36.71;96059.38;5023594;28;20041;-63
2021/06/21 05:59:03;;;;;;;6.22;1.08;;;;;;;31.71;36.66;96058.72;5020571;28;20049;-65
2021/06/21 06:01:28;;;;;;;9.02;1.80;;;;;;;32.73;33.74;96052.22;5021260;28;20136;-63
2021/06/21 06:03:54;;;;;;;13.05;1.73;;;;;;;32.89;32.84;96061.84;5021144;28;20049;-63
2021/06/21 06:06:19;;;;;;;11.52;1.10;;;;;;;31.73;34.60;96066.66;5016882;28;20041;-63
2021/06/21 06:08:45;;;;;;;8.95;1.33;;;;;;;32.70;33.41;96067.44;5021791;28;20041;-63
2021/06/21 06:11:10;;;;;;;9.77;1.33;;;;;;;33.10;32.34;96067.81;4999486;28;20041;-64
2021/06/21 06:13:37;;;;;;;8.00;1.40;;;;;;;33.17;32.61;96069.28;5019133;28;20431;-63
2021/06/21 06:16:03;;;;;;;8.65;0.93;;;;;;;33.01;32.60;96074.59;5020251;28;20045;-66
2021/06/21 06:18:28;;;;;;;9.07;1.90;;;;;;;32.91;32.50;96074.19;5019761;28;20371;-64
2021/06/21 06:20:54;;;;;;;5.75;1.20;;;;;;;32.86;32.33;96069.38;5019855;28;20049;-63
2021/06/21 06:23:19;;;;;;;7.60;1.73;;;;;;;31.65;33.59;96069.31;5016315;28;20049;-64
2021/06/21 06:25:45;;;;;;;8.80;1.33;;;;;;;33.04;32.48;96082.03;5023009;28;20423;-62
2021/06/21 06:28:10;;;;;;;5.50;1.48;;;;;;;33.50;31.71;96079.44;4995635;28;20584;-65
2021/06/21 06:30:36;;;;;;;9.45;1.48;;;;;;;32.76;32.75;96073.84;5022621;28;20041;-65
2021/06/21 06:33:02;;;;;;;11.48;1.23;;;;;;;31.73;35.11;96094.97;5021453;28;20494;-63
2021/06/21 06:35:27;;;;;;;8.95;2.00;;;;;;;32.85;32.99;96086.91;5018375;28;20052;-65
2021/06/21 06:37:52;;;;;;;14.75;1.63;;;;;;;32.74;32.28;96082.88;5021415;28;20038;-64
2021/06/21 06:40:19;;;;;;;13.98;1.77;;;;;;;33.20;30.83;96083.16;5013963;28;20037;-64
2021/06/21 06:42:45;;;;;;;10.32;1.75;;;;;;;32.09;33.30;96083.69;5024865;28;20104;-64
2021/06/21 06:45:12;;;;;;;12.90;2.42;;;;;;;31.25;34.99;96083.63;5017839;28;20042;-63
2021/06/21 06:47:38;;;;;;;10.52;1.77;;;;;;;31.37;34.56;96075.09;5001708;28;20045;-63
2021/06/21 06:50:05;;;;;;;11.15;1.75;;;;;;;30.55;35.94;96073.53;5018039;28;20613;-64
2021/06/21 06:52:32;;;;;;;6.05;1.35;;;;;;;30.92;34.22;96073.22;4979016;28;20553;-63
2021/06/21 06:57:33;;;;;;;7.80;1.42;;;;;;;32.91;32.12;96070.59;4994491;28;20042;-63
2021/06/21 06:59:59;;;;;;;10.05;1.48;;;;;;;31.97;33.91;96069.59;4987359;28;20053;-63
2021/06/21 07:02:24;;;;;;;6.78;1.38;;;;;;;33.03;30.81;96076.91;5017342;28;20049;-64
2021/06/21 07:04:50;;;;;;;9.18;1.60;;;;;;;32.74;32.03;96074.38;5020406;28;20474;-65
2021/06/21 07:07:18;;;;;;;13.32;1.45;;;;;;;32.55;32.67;96071.44;4997980;28;20088;-64
2021/06/21 07:09:44;;;;;;;12.68;2.30;;;;;;;33.52;31.17;96071.91;4983656;28;20046;-64
2021/06/21 07:12:10;;;;;;;10.93;1.13;;;;;;;33.52;30.98;96071.91;5006633;28;20508;-64
2021/06/21 07:14:35;;;;;;;7.43;1.40;;;;;;;34.26;29.94;96077.28;5011630;28;20042;-63
2021/06/21 07:17:01;;;;;;;10.38;1.63;;;;;;;34.26;29.56;96076.53;5001236;28;20037;-63
2021/06/21 07:19:27;;;;;;;11.63;1.63;;;;;;;33.72;30.21;96081.97;4999898;28;20080;-64
2021/06/21 07:21:53;;;;;;;8.05;1.40;;;;;;;31.59;34.00;96077.84;5013303;28;20041;-65
2021/06/21 07:24:19;;;;;;;10.48;1.77;;;;;;;30.11;37.19;96095.63;5016176;28;20550;-65
2021/06/21 07:26:46;;;;;;;6.57;1.73;;;;;;;31.85;34.35;96085.13;5021193;28;20405;-65
2021/06/21 07:29:11;;;;;;;8.18;1.50;;;;;;;32.09;33.89;96087.31;5016100;28;20041;-64
2021/06/21 07:31:36;;;;;;;5.45;1.00;;;;;;;31.83;32.61;96088.47;4995505;28;20073;-62
2021/06/21 07:34:03;;;;;;;6.50;1.27;;;;;;;30.93;34.11;96086.06;5018194;28;20034;-63
2021/06/21 07:36:28;;;;;;;9.10;1.20;;;;;;;30.80;34.79;96077.34;5012374;28;20053;-63
2021/06/21 07:38:54;;;;;;;9.57;1.05;;;;;;;31.16;33.84;96080.34;5011668;28;20080;-62
2021/06/21 07:41:19;;;;;;;12.13;1.75;;;;;;;31.91;34.07;96079.41;5016028;28;20124;-62
2021/06/21 07:43:45;;;;;;;9.32;1.30;;;;;;;31.24;35.35;96078.50;5021407;28;20093;-62
2021/06/21 07:46:11;;;;;;;10.75;1.50;;;;;;;32.47;33.98;96069.75;5016464;28;20068;-62
2021/06/21 07:48:40;;;;;;;8.40;1.05;;;;;;;30.18;36.67;96075.34;5021039;28;20066;-62
2021/06/21 07:51:08;;;;;;;5.53;1.05;;;;;;;32.28;33.41;96073.22;5015174;28;20102;-64
2021/06/21 07:53:38;;;;;;;9.45;1.55;;;;;;;32.71;32.74;96066.94;5020165;28;20057;-62
2021/06/21 07:56:06;;;;;;;8.55;1.67;;;;;;;32.46;33.63;96071.03;5000488;28;20124;-63
2021/06/21 07:58:39;;;;;;;7.70;1.17;;;;;;;32.81;31.66;96073.03;5021097;28;20372;-62
2021/06/21 08:01:05;;;;;;;6.38;1.05;;;;;;;32.22;32.29;96072.53;5016598;28;20288;-63
2021/06/21 08:03:31;;;;;;;9.95;1.48;;;;;;;31.17;35.44;96076.22;5021447;28;20049;-63
2021/06/21 08:06:01;;;;;;;7.78;1.50;;;;;;;31.24;35.69;96076.44;5020602;28;20049;-63
2021/06/21 08:08:26;;;;;;;9.18;1.73;;;;;;;30.38;35.96;96076.38;5015358;28;20133;-63
2021/06/21 08:10:52;;;;;;;7.38;1.13;;;;;;;30.34;36.89;96078.69;5007503;28;20108;-63
2021/06/21 08:13:17;;;;;;;7.70;1.33;;;;;;;29.57;38.79;96079.63;4996767;28;20072;-62
2021/06/21 08:15:43;;;;;;;7.78;1.27;;;;;;;30.30;37.67;96073.28;4991942;28;20053;-63
2021/06/21 08:18:10;;;;;;;11.10;1.30;;;;;;;29.60;39.43;96070.13;5014055;28;20044;-64
2021/06/21 08:20:36;;;;;;;9.82;1.13;;;;;;;29.41;38.38;96064.19;5020297;28;20068;-62
2021/06/21 08:23:01;;;;;;;13.30;1.38;;;;;;;29.77;39.08;96050.44;5021362;28;20071;-63
2021/06/21 08:25:27;;;;;;;6.88;1.02;;;;;;;29.26;39.78;96063.63;5015408;28;20489;-63
2021/06/21 08:27:52;;;;;;;7.05;1.45;;;;;;;29.37;39.75;96069.31;5018918;28;20041;-63
2021/06/21 08:30:18;;;;;;;11.20;1.73;;;;;;;29.43;39.58;96055.22;5017119;28;20053;-62
2021/06/21 08:32:44;;;;;;;7.97;1.27;;;;;;;28.65;40.75;96060.03;5024010;28;20064;-62
2021/06/21 08:35:10;;;;;;;13.32;1.40;;;;;;;27.99;41.41;96061.81;5016749;28;20037;-63
2021/06/21 08:37:35;;;;;;;5.85;1.30;;;;;;;27.44;42.83;96063.56;5020823;28;20044;-62
2021/06/21 08:40:04;;;;;;;6.00;1.67;;;;;;;27.76;42.72;96055.19;5021561;28;20037;-63
2021/06/21 08:42:30;;;;;;;8.33;1.80;;;;;;;28.16;41.25;96056.31;5013273;28;20162;-62
2021/06/21 08:44:57;;;;;;;7.80;1.30;;;;;;;28.38;40.39;96061.34;5020065;28;20065;-63
2021/06/21 08:47:23;;;;;;;11.77;1.20;;;;;;;28.41;40.30;96065.97;5016698;28;20057;-63
2021/06/21 08:49:49;;;;;;;9.38;1.27;;;;;;;28.20;40.90;96060.47;5018928;28;20052;-63
2021/06/21 08:52:17;;;;;;;8.45;1.52;;;;;;;28.89;39.82;96062.44;5016146;28;20397;-63
2021/06/21 08:54:43;;;;;;;5.85;1.27;;;;;;;29.10;39.46;96065.88;4999302;28;20049;-63
2021/06/21 08:57:09;;;;;;;7.28;1.50;;;;;;;29.26;39.49;96061.59;5014569;28;20034;-63
2021/06/21 08:59:35;;;;;;;5.35;1.10;;;;;;;29.29;39.23;96062.63;5018975;28;20041;-63
2021/06/21 09:02:00;;;;;;;6.47;1.25;;;;;;;29.10;39.39;96065.06;5017974;28;20513;-63
2021/06/21 09:04:28;;;;;;;7.15;1.35;;;;;;;29.29;38.52;96054.91;5015150;28;20112;-63
2021/06/21 09:06:54;;;;;;;12.73;1.80;;;;;;;29.73;38.44;96058.38;5021328;28;20070;-63
2021/06/21 09:09:19;;;;;;;12.48;1.23;;;;;;;29.34;38.84;96045.72;5016217;28;20068;-63
2021/06/21 09:11:49;;;;;;;5.60;1.35;;;;;;;28.98;38.01;96047.38;5020767;28;20069;-62
2021/06/21 09:14:23;;;;;;;4.25;1.25;;;;;;;29.46;37.12;96045.72;5008539;28;20045;-62
2021/06/21 09:16:49;;;;;;;5.10;1.10;;;;;;;29.45;37.94;96047.78;5019051;28;20171;-63
2021/06/21 09:19:17;;;;;;;4.72;1.23;;;;;;;29.33;37.46;96040.56;5013378;28;20554;-63
2021/06/21 09:21:43;;;;;;;4.40;1.40;;;;;;;29.69;37.39;96047.34;5019005;28;20041;-63
2021/06/21 09:24:28;;;;;;;8.75;1.58;;;;;;;29.84;36.53;96038.66;5013720;28;20037;-63
2021/06/21 09:27:00;;;;;;;14.65;1.20;;;;;;;29.05;37.95;96044.06;5014063;28;20068;-62
2021/06/21 09:29:36;;;;;;;5.80;1.20;;;;;;;29.40;37.99;96036.50;5012995;28;20537;-63
2021/06/21 09:32:02;;;;;;;13.90;1.42;;;;;;;29.17;38.50;96034.41;5019103;28;20071;-62
2021/06/21 09:34:27;;;;;;;4.93;1.15;;;;;;;29.55;37.52;96037.81;5013920;28;20583;-62
2021/06/21 09:36:55;;;;;;;6.00;0.98;;;;;;;26.76;42.55;96037.47;5011889;28;20461;-61
2021/06/21 09:39:25;;;;;;;8.15;1.38;;;;;;;27.34;42.78;96034.84;5005978;28;20044;-62
2021/06/21 09:42:19;;;;;;;6.53;1.10;;;;;;;28.38;40.45;96036.78;5017498;28;20038;-63
2021/06/21 09:44:53;;;;;;;7.57;1.20;;;;;;;29.08;39.42;96030.97;5017910;28;20544;-63
2021/06/21 09:47:27;;;;;;;4.60;1.15;;;;;;;28.66;38.49;96027.75;5013698;28;20115;-62
2021/06/21 09:50:05;;;;;;;8.48;1.23;;;;;;;28.43;40.18;96029.63;5018249;28;20437;-62
2021/06/21 09:53:02;;;;;;;7.65;1.52;;;;;;;26.17;43.90;96024.38;4995694;28;20124;-63
2021/06/21 09:55:32;;;;;;;7.05;1.10;;;;;;;27.83;41.34;96035.81;5013002;28;20053;-64
2021/06/21 09:58:03;;;;;;;11.73;1.20;;;;;;;28.18;39.84;96025.63;5018960;28;20046;-62
2021/06/21 10:00:30;;;;;;;6.57;1.10;;;;;;;28.29;40.75;96022.91;5017962;28;20080;-62
2021/06/21 10:03:15;;;;;;;7.22;1.10;;;;;;;28.44;39.75;96025.53;5015663;28;20050;-62
2021/06/21 10:06:02;;;;;;;6.18;0.80;;;;;;;27.29;41.74;96024.31;5021927;28;20048;-61
2021/06/21 10:08:49;;;;;;;9.10;0.95;;;;;;;27.11;43.03;96021.78;5019179;28;20132;-61
2021/06/21 10:11:34;;;;;;;5.95;0.98;;;;;;;28.30;40.73;96020.84;5012692;28;20107;-61
2021/06/21 10:14:02;;;;;;;7.65;1.27;;;;;;;28.02;41.48;96022.19;5020568;28;20047;-61
2021/06/21 10:16:28;;;;;;;6.63;1.40;;;;;;;28.29;40.26;96024.94;5007993;28;20100;-63
2021/06/21 10:18:55;;;;;;;2.70;0.90;;;;;;;29.02;39.29;96016.13;5023070;28;20037;-62
2021/06/21 10:21:24;;;;;;;4.43;1.25;;;;;;;29.06;39.30;96019.44;5015965;28;20494;-62
2021/06/21 10:23:50;;;;;;;10.52;1.40;;;;;;;28.96;38.63;96016.09;5022359;28;20480;-63
2021/06/21 10:26:16;;;;;;;9.30;1.60;;;;;;;28.93;37.51;96012.22;5016001;28;20078;-64
2021/06/21 10:28:42;;;;;;;5.93;1.08;;;;;;;28.96;37.35;96011.22;5003574;28;20402;-63
2021/06/21 10:31:08;;;;;;;6.63;1.00;;;;;;;28.95;37.95;96015.31;5017153;28;20041;-64
2021/06/21 10:33:35;;;;;;;11.27;2.00;;;;;;;28.92;38.28;96012.75;5021014;28;20113;-63
2021/06/21 10:36:03;;;;;;;11.25;1.60;;;;;;;29.36;36.48;96011.38;5019870;28;20072;-62
2021/06/21 10:38:29;;;;;;;8.05;1.65;;;;;;;29.23;36.25;96016.72;5019816;28;20594;-61
2021/06/21 10:41:04;;;;;;;10.70;1.40;;;;;;;29.41;37.09;96012.66;5025489;28;20056;-63
2021/06/21 10:43:47;;;;;;;7.13;1.67;;;;;;;28.86;37.20;96017.59;5023256;28;20038;-64
2021/06/21 10:46:33;;;;;;;7.22;1.52;;;;;;;29.28;35.87;96018.75;5016282;28;20057;-64
2021/06/21 10:49:01;;;;;;;5.03;1.13;;;;;;;29.07;37.61;96015.38;5023544;28;20034;-63
2021/06/21 10:51:39;;;;;;;9.53;1.87;;;;;;;27.75;41.06;96014.25;5018532;28;20468;-63
2021/06/21 10:54:07;;;;;;;6.55;1.15;;;;;;;27.47;41.37;96009.16;5016647;28;20137;-65
2021/06/21 10:56:45;;;;;;;13.18;1.50;;;;;;;27.82;40.71;96006.16;5024194;28;20057;-62
2021/06/21 10:59:13;;;;;;;9.60;1.42;;;;;;;28.37;38.19;96003.47;5011508;28;20068;-61
2021/06/21 11:01:50;;;;;;;7.68;1.98;;;;;;;28.67;37.64;96003.16;5007266;28;20136;-60
2021/06/21 11:04:31;;;;;;;9.88;2.03;;;;;;;28.18;38.53;96001.06;5016418;28;20056;-63
2021/06/21 11:07:17;;;;;;;5.50;0.93;;;;;;;28.95;37.61;96003.28;5021301;28;20038;-62
2021/06/21 11:09:45;;;;;;;6.80;1.42;;;;;;;28.77;37.82;96001.66;5004560;28;20140;-63
2021/06/21 11:12:23;;;;;;;11.50;1.60;;;;;;;28.88;38.06;96000.94;5017468;28;20471;-63
2021/06/21 11:15:05;;;;;;;7.93;1.48;;;;;;;29.05;37.43;96001.00;5021972;28;20049;-64
2021/06/21 11:17:32;;;;;;;7.65;1.63;;;;;;;29.15;37.11;95999.50;5020281;28;20117;-63
2021/06/21 11:20:26;;;;;;;8.43;1.52;;;;;;;28.91;37.46;96002.75;5021863;28;20037;-62
2021/06/21 11:22:57;;;;;;;7.65;1.42;;;;;;;29.27;36.82;96006.72;5021357;28;20050;-63
2021/06/21 11:25:24;;;;;;;9.68;1.38;;;;;;;29.41;35.80;95996.50;5016983;28;20524;-63
2021/06/21 11:27:51;;;;;;;12.60;1.83;;;;;;;29.16;36.66;95995.44;5021845;28;20525;-62
2021/06/21 11:30:32;;;;;;;6.82;1.20;;;;;;;29.09;37.09;95993.84;5038795;23;21834;-63
2021/06/21 11:33:04;;;;;;;4.57;1.10;;;;;;;29.34;35.22;95991.38;4986809;28;20487;-63
2021/06/21 11:35:54;;;;;;;8.93;1.30;;;;;;;29.33;35.12;95987.78;5012269;28;20049;-64
2021/06/21 11:38:33;;;;;;;9.43;1.38;;;;;;;28.94;36.03;95993.28;5020011;28;20042;-64